createdAt,value
2022-11-21T00:01:12.664Z,2.15
2022-11-21T00:03:39.884Z,2.45
2022-11-21T00:06:06.968Z,1.90
2022-11-21T00:08:34.149Z,1.95
2022-11-21T00:11:01.369Z,3.78
2022-11-21T00:13:28.587Z,1.95
2022-11-21T00:15:55.641Z,0.50
2022-11-21T00:18:22.813Z,1.40
2022-11-21T00:20:49.878Z,3.03
2022-11-21T00:23:17.066Z,3.08
2022-11-21T00:25:44.212Z,2.85
2022-11-21T00:28:11.415Z,1.38
2022-11-21T00:30:38.498Z,1.90
2022-11-21T00:33:05.741Z,1.10
2022-11-21T00:35:32.976Z,3.25
2022-11-21T00:38:00.019Z,1.42
2022-11-21T00:40:27.189Z,1.20
2022-11-21T00:42:54.295Z,1.65
2022-11-21T00:45:24.264Z,1.10
2022-11-21T00:47:51.834Z,0.73
2022-11-21T00:50:19.072Z,0.90
2022-11-21T00:52:46.142Z,2.05
2022-11-21T00:55:13.292Z,0.50
2022-11-21T00:57:40.524Z,0.85
2022-11-21T01:00:08.381Z,2.40
2022-11-21T01:02:35.438Z,1.13
2022-11-21T01:05:02.679Z,2.05
2022-11-21T01:07:29.873Z,0.30
2022-11-21T01:09:57.067Z,0.20
2022-11-21T01:12:24.555Z,0.60
2022-11-21T01:14:51.651Z,0.20
2022-11-21T01:17:18.987Z,0.40
2022-11-21T01:19:46.158Z,0.40
2022-11-21T01:22:13.405Z,0.77
2022-11-21T01:24:40.432Z,0.50
2022-11-21T01:27:07.561Z,0.70
2022-11-21T01:29:34.628Z,2.28
2022-11-21T01:32:01.931Z,1.15
2022-11-21T01:34:29.443Z,0.60
2022-11-21T01:36:56.811Z,0.52
2022-11-21T01:39:23.938Z,1.13
2022-11-21T01:41:50.968Z,0.70
2022-11-21T01:44:46.610Z,1.73
2022-11-21T01:47:13.734Z,1.88
2022-11-21T01:49:42.506Z,0.57
2022-11-21T01:52:17.953Z,1.08
2022-11-21T01:55:02.097Z,0.45
2022-11-21T01:57:41.447Z,0.73
2022-11-21T02:00:24.212Z,0.32
2022-11-21T02:02:54.224Z,0.60
2022-11-21T02:05:28.158Z,1.80
2022-11-21T02:08:00.087Z,0.57
2022-11-21T02:10:27.361Z,0.93
2022-11-21T02:12:56.733Z,1.95
2022-11-21T02:15:26.465Z,1.90
2022-11-21T02:17:53.808Z,1.25
2022-11-21T02:20:25.874Z,0.85
2022-11-21T02:23:30.431Z,0.95
2022-11-21T02:25:57.640Z,1.05
2022-11-21T02:28:25.648Z,1.45
2022-11-21T02:30:52.903Z,1.67
2022-11-21T02:33:20.088Z,1.55
2022-11-21T02:35:59.923Z,1.83
2022-11-21T02:38:33.815Z,1.85
2022-11-21T02:41:26.673Z,0.73
2022-11-21T02:44:07.607Z,2.33
2022-11-21T02:46:35.738Z,0.80
2022-11-21T02:49:07.741Z,1.48
2022-11-21T02:51:34.943Z,0.70
2022-11-21T02:54:02.021Z,0.80
2022-11-21T02:56:29.427Z,0.47
2022-11-21T02:58:56.737Z,1.15
2022-11-21T03:01:23.923Z,1.33
2022-11-21T03:03:50.936Z,2.60
2022-11-21T03:06:18.076Z,1.10
2022-11-21T03:08:45.122Z,0.85
2022-11-21T03:11:12.364Z,0.50
2022-11-21T03:13:39.507Z,0.82
2022-11-21T03:16:06.663Z,2.50
2022-11-21T03:18:33.690Z,2.13
2022-11-21T03:21:00.843Z,2.08
2022-11-21T03:23:27.899Z,2.78
2022-11-21T03:25:56.463Z,0.73
2022-11-21T03:28:23.698Z,2.50
2022-11-21T03:30:50.808Z,0.93
2022-11-21T03:33:17.887Z,1.10
2022-11-21T03:35:44.979Z,1.45
2022-11-21T03:38:12.036Z,1.63
2022-11-21T03:40:39.124Z,2.65
2022-11-21T03:43:06.843Z,4.43
2022-11-21T03:45:34.167Z,1.15
2022-11-21T03:48:01.796Z,3.67
2022-11-21T03:50:28.891Z,1.58
2022-11-21T03:52:56.108Z,0.80
2022-11-21T03:55:23.245Z,3.72
2022-11-21T03:57:50.469Z,0.95
2022-11-21T04:00:18.897Z,4.25
2022-11-21T04:02:46.066Z,1.73
2022-11-21T04:05:13.215Z,1.85
2022-11-21T04:07:40.389Z,2.25
2022-11-21T04:10:07.927Z,1.85
2022-11-21T04:12:35.070Z,2.83
2022-11-21T04:15:02.613Z,5.57
2022-11-21T04:17:29.818Z,2.65
2022-11-21T04:19:57.043Z,4.88
2022-11-21T04:22:24.125Z,2.53
2022-11-21T04:24:51.213Z,3.20
2022-11-21T04:27:18.400Z,3.00
2022-11-21T04:29:45.533Z,2.08
2022-11-21T04:32:12.730Z,3.83
2022-11-21T04:34:39.900Z,1.42
2022-11-21T04:37:11.383Z,2.90
2022-11-21T04:39:39.055Z,1.23
2022-11-21T04:42:06.296Z,5.13
2022-11-21T04:44:33.590Z,2.63
2022-11-21T04:47:05.092Z,5.00
2022-11-21T04:49:33.964Z,4.28
2022-11-21T04:52:01.738Z,4.25
2022-11-21T04:54:29.100Z,3.08
2022-11-21T04:56:56.672Z,4.13
2022-11-21T04:59:23.796Z,2.20
2022-11-21T05:01:51.000Z,3.38
2022-11-21T05:04:18.083Z,4.20
2022-11-21T05:06:45.311Z,8.75
2022-11-21T05:09:12.414Z,4.65
2022-11-21T05:11:58.201Z,2.55
2022-11-21T05:14:28.012Z,6.10
2022-11-21T05:16:55.562Z,1.90
2022-11-21T05:19:22.632Z,2.45
2022-11-21T05:21:50.907Z,5.22
2022-11-21T05:24:18.070Z,4.65
2022-11-21T05:26:45.160Z,4.15
2022-11-21T05:29:13.169Z,4.55
2022-11-21T05:31:40.370Z,3.47
2022-11-21T05:34:07.552Z,2.58
2022-11-21T05:36:34.796Z,2.95
2022-11-21T05:39:02.025Z,2.67
2022-11-21T05:41:29.368Z,4.53
2022-11-21T05:43:56.583Z,5.18
2022-11-21T05:46:26.624Z,3.33
2022-11-21T05:48:54.973Z,3.25
2022-11-21T05:51:22.683Z,4.65
2022-11-21T05:53:49.989Z,2.72
2022-11-21T05:56:19.205Z,5.90
2022-11-21T05:58:46.832Z,6.30
2022-11-21T06:01:15.582Z,3.92
2022-11-21T06:03:43.410Z,4.28
2022-11-21T06:06:15.244Z,4.30
2022-11-21T06:08:44.949Z,2.05
2022-11-21T06:11:14.511Z,3.88
2022-11-21T06:13:42.158Z,3.90
2022-11-21T06:16:10.652Z,5.25
2022-11-21T06:18:40.130Z,3.88
2022-11-21T06:21:10.022Z,5.15
2022-11-21T06:23:37.300Z,4.38
2022-11-21T06:26:06.967Z,3.00
2022-11-21T06:28:40.143Z,4.47
2022-11-21T06:31:18.979Z,3.33
2022-11-21T06:33:46.842Z,4.45
2022-11-21T06:36:16.632Z,5.50
2022-11-21T06:38:45.344Z,3.72
2022-11-21T06:41:17.568Z,4.57
2022-11-21T06:43:45.045Z,3.85
2022-11-21T06:46:13.739Z,2.30
2022-11-21T06:48:41.937Z,6.20
2022-11-21T06:51:20.417Z,4.78
2022-11-21T06:53:48.958Z,4.30
2022-11-21T06:56:16.252Z,4.32
2022-11-21T06:58:43.437Z,5.07
2022-11-21T07:01:14.158Z,4.95
2022-11-21T07:03:41.366Z,6.63
2022-11-21T07:06:08.496Z,3.47
2022-11-21T07:08:36.801Z,2.28
2022-11-21T07:11:24.592Z,4.10
2022-11-21T07:13:52.584Z,3.58
2022-11-21T07:16:19.709Z,3.40
2022-11-21T07:18:46.807Z,2.92
2022-11-21T07:21:14.066Z,2.90
2022-11-21T07:23:41.164Z,5.10
2022-11-21T07:26:10.754Z,5.20
2022-11-21T07:28:41.259Z,4.68
2022-11-21T07:31:13.931Z,3.78
2022-11-21T07:33:43.696Z,8.43
2022-11-21T07:36:12.307Z,9.40
2022-11-21T07:38:41.147Z,8.55
2022-11-21T07:41:08.405Z,7.00
2022-11-21T07:43:35.606Z,6.32
2022-11-21T07:46:02.724Z,7.85
2022-11-21T07:48:29.922Z,6.25
2022-11-21T07:50:57.184Z,7.90
2022-11-21T07:53:24.469Z,5.97
2022-11-21T07:55:51.560Z,6.35
2022-11-21T07:58:18.710Z,5.55
2022-11-21T08:00:45.848Z,4.60
2022-11-21T08:03:13.561Z,4.38
2022-11-21T08:05:42.751Z,5.70
2022-11-21T08:08:11.092Z,2.83
2022-11-21T08:10:40.092Z,6.65
2022-11-21T08:13:07.280Z,4.90
2022-11-21T08:15:34.519Z,6.50
2022-11-21T08:18:14.923Z,4.72
2022-11-21T08:20:43.044Z,3.10
2022-11-21T08:23:11.025Z,3.58
2022-11-21T08:25:39.460Z,3.65
2022-11-21T08:28:08.438Z,3.88
2022-11-21T08:30:36.622Z,4.57
2022-11-21T08:33:05.958Z,6.63
2022-11-21T08:35:33.166Z,7.05
2022-11-21T08:38:01.682Z,9.13
2022-11-21T08:40:31.377Z,6.85
2022-11-21T08:43:09.464Z,6.85
2022-11-21T08:45:38.007Z,5.15
2022-11-21T08:48:10.844Z,7.82
2022-11-21T08:50:38.200Z,3.25
2022-11-21T08:53:05.264Z,4.07
2022-11-21T08:55:32.599Z,3.28
2022-11-21T08:57:59.817Z,3.22
2022-11-21T09:00:27.036Z,3.00
2022-11-21T09:02:54.308Z,3.22
2022-11-21T09:05:21.426Z,3.25
2022-11-21T09:07:48.893Z,6.60
2022-11-21T09:10:16.172Z,4.88
2022-11-21T09:12:43.689Z,4.28
2022-11-21T09:15:30.692Z,5.13
2022-11-21T09:18:04.992Z,5.95
2022-11-21T09:20:38.638Z,5.00
2022-11-21T09:23:07.047Z,4.53
2022-11-21T09:25:34.548Z,7.35
2022-11-21T09:28:06.683Z,4.57
2022-11-21T09:30:34.411Z,4.82
2022-11-21T09:33:02.950Z,4.35
2022-11-21T09:35:30.795Z,9.45
2022-11-21T09:37:58.217Z,8.68
2022-11-21T09:40:26.079Z,7.60
2022-11-21T09:42:56.258Z,4.50
2022-11-21T09:45:51.012Z,6.05
2022-11-21T09:48:26.527Z,8.85
2022-11-21T09:51:04.678Z,7.53
2022-11-21T09:53:36.529Z,7.97
2022-11-21T09:56:20.152Z,8.10
2022-11-21T09:58:56.198Z,8.00
2022-11-21T10:01:23.451Z,6.28
2022-11-21T10:03:54.952Z,10.13
2022-11-21T10:06:28.371Z,5.78
2022-11-21T10:09:25.730Z,7.68
2022-11-21T10:12:27.400Z,5.95
2022-11-21T10:15:16.398Z,7.30
2022-11-21T10:18:08.192Z,7.60
2022-11-21T10:20:55.093Z,7.90
2022-11-21T10:23:24.861Z,8.02
2022-11-21T10:26:17.373Z,7.80
2022-11-21T10:28:47.409Z,4.82
2022-11-21T10:31:15.819Z,6.88
2022-11-21T10:33:43.109Z,6.63
2022-11-21T10:36:27.655Z,8.13
2022-11-21T10:39:01.459Z,6.68
2022-11-21T10:41:47.589Z,8.82
2022-11-21T10:44:44.569Z,7.95
2022-11-21T10:47:33.349Z,9.82
2022-11-21T10:50:25.595Z,7.93
2022-11-21T10:53:36.420Z,5.43
2022-11-21T10:56:12.794Z,8.10
2022-11-21T10:58:51.460Z,7.32
2022-11-21T11:01:30.817Z,8.75
2022-11-21T11:04:44.095Z,7.07
2022-11-21T11:07:00.389Z,7.40
2022-11-21T11:09:30.642Z,9.38
2022-11-21T11:12:54.812Z,8.75
2022-11-21T11:15:26.938Z,7.32
2022-11-21T11:18:05.569Z,5.77
2022-11-21T11:20:41.384Z,10.00
2022-11-21T11:23:20.612Z,8.50
2022-11-21T11:25:49.297Z,12.32
2022-11-21T11:28:16.495Z,9.65
2022-11-21T11:30:43.881Z,8.27
2022-11-21T11:33:30.466Z,12.32
2022-11-21T11:36:19.563Z,12.63
2022-11-21T11:39:00.092Z,8.75
2022-11-21T11:42:04.578Z,6.28
2022-11-21T11:45:14.042Z,12.85
2022-11-21T11:47:54.993Z,21.35
2022-11-21T11:50:43.904Z,15.93
2022-11-21T11:53:43.974Z,29.98
2022-11-21T11:56:38.647Z,12.75
2022-11-21T11:59:12.614Z,8.13
2022-11-21T12:01:50.997Z,10.93
2022-11-21T12:04:21.372Z,8.13
2022-11-21T12:08:19.776Z,9.80
2022-11-21T12:10:06.949Z,6.93
2022-11-21T12:12:44.052Z,7.95
2022-11-21T12:15:38.610Z,11.93
2022-11-21T12:18:21.129Z,8.65
2022-11-21T12:21:15.429Z,8.57
2022-11-21T12:23:59.139Z,5.78
2022-11-21T12:26:32.366Z,7.60
2022-11-21T12:29:14.585Z,9.40
2022-11-21T12:32:04.607Z,5.50
2022-11-21T12:34:43.418Z,4.28
2022-11-21T12:37:22.478Z,7.82
2022-11-21T12:40:08.087Z,5.65
2022-11-21T12:42:57.292Z,5.88
2022-11-21T12:45:29.442Z,7.97
2022-11-21T12:48:33.248Z,6.90
2022-11-21T12:54:39.031Z,5.80
2022-11-21T12:57:12.318Z,8.63
2022-11-21T12:59:58.251Z,3.63
2022-11-21T13:02:32.512Z,6.80
2022-11-21T13:05:03.272Z,5.65
2022-11-21T13:07:31.899Z,5.47
2022-11-21T13:10:02.920Z,5.22
2022-11-21T13:12:44.073Z,4.72
2022-11-21T13:15:18.870Z,5.55
2022-11-21T13:18:01.465Z,4.55
2022-11-21T13:20:39.746Z,7.80
2022-11-21T13:23:31.653Z,8.85
2022-11-21T13:25:59.009Z,6.72
2022-11-21T13:28:34.988Z,5.43
2022-11-21T13:31:05.992Z,8.45
2022-11-21T13:33:36.504Z,4.50
2022-11-21T13:36:34.065Z,5.43
2022-11-21T13:39:01.376Z,4.68
2022-11-21T13:41:53.068Z,4.88
2022-11-21T13:44:35.126Z,1.90
2022-11-21T13:47:12.530Z,7.13
2022-11-21T13:50:10.081Z,3.83
2022-11-21T13:52:58.695Z,4.13
2022-11-21T13:55:44.201Z,4.45
2022-11-21T13:58:47.079Z,4.85
2022-11-21T14:01:46.712Z,4.10
2022-11-21T14:04:42.776Z,6.55
2022-11-21T14:07:26.558Z,6.45
2022-11-21T14:09:56.139Z,4.43
2022-11-21T14:12:44.308Z,5.82
2022-11-21T14:15:40.746Z,4.45
2022-11-21T14:18:20.301Z,5.40
2022-11-21T14:21:00.853Z,6.10
2022-11-21T14:23:34.440Z,6.53
2022-11-21T14:26:23.292Z,7.28
2022-11-21T14:28:52.488Z,7.93
2022-11-21T14:31:19.642Z,2.85
2022-11-21T14:33:48.110Z,6.38
2022-11-21T14:36:18.104Z,5.15
2022-11-21T14:41:48.755Z,6.97
2022-11-21T14:44:18.640Z,5.78
2022-11-21T14:46:47.342Z,7.50
2022-11-21T14:49:17.391Z,5.40
2022-11-21T14:51:53.002Z,7.55
2022-11-21T14:54:27.003Z,6.10
2022-11-21T14:57:03.812Z,5.55
2022-11-21T14:59:42.366Z,5.82
2022-11-21T15:02:14.202Z,7.07
2022-11-21T15:04:42.845Z,7.32
2022-11-21T15:07:35.102Z,9.40
2022-11-21T15:13:08.818Z,8.70
2022-11-21T15:15:43.896Z,6.22
2022-11-21T15:18:28.469Z,10.15
2022-11-21T15:20:59.133Z,7.93
2022-11-21T15:23:32.299Z,11.65
2022-11-21T15:26:01.615Z,11.25
2022-11-21T15:28:30.120Z,8.68
2022-11-21T15:31:20.304Z,3.75
2022-11-21T15:37:08.544Z,6.70
2022-11-21T15:39:36.556Z,9.27
2022-11-21T15:42:31.553Z,7.40
2022-11-21T15:48:07.309Z,8.80
2022-11-21T15:50:35.027Z,7.00
2022-11-21T15:53:02.186Z,6.35
2022-11-21T15:55:31.566Z,5.93
2022-11-21T15:57:13.846Z,8.77
2022-11-21T15:57:58.725Z,3.95
2022-11-21T16:00:25.820Z,7.50
2022-11-21T16:02:52.920Z,12.30
2022-11-21T16:05:20.086Z,10.82
2022-11-21T16:07:48.561Z,7.45
2022-11-21T16:10:21.421Z,6.03
2022-11-21T16:12:53.380Z,8.98
2022-11-21T16:15:20.696Z,6.20
2022-11-21T16:17:48.023Z,5.20
2022-11-21T16:20:15.747Z,8.13
2022-11-21T16:22:47.489Z,10.88
2022-11-21T16:25:15.960Z,10.68
2022-11-21T16:27:42.992Z,12.13
2022-11-21T16:30:10.738Z,10.75
2022-11-21T16:32:37.790Z,6.97
2022-11-21T16:35:05.945Z,12.10
2022-11-21T16:37:33.513Z,12.50
2022-11-21T16:40:00.946Z,10.40
2022-11-21T16:42:28.044Z,8.30
2022-11-21T16:44:55.445Z,9.80
2022-11-21T16:47:22.532Z,6.20
2022-11-21T16:49:52.801Z,9.82
2022-11-21T16:52:20.083Z,9.38
2022-11-21T16:54:47.326Z,9.45
2022-11-21T16:57:14.574Z,9.25
2022-11-21T16:59:41.653Z,12.50
2022-11-21T17:02:12.412Z,7.32
2022-11-21T17:04:39.661Z,8.05
2022-11-21T17:07:06.733Z,11.05
2022-11-21T17:09:34.072Z,11.00
2022-11-21T17:12:01.213Z,13.63
2022-11-21T17:14:28.676Z,10.30
2022-11-21T17:16:56.085Z,10.77
2022-11-21T17:19:23.297Z,11.07
2022-11-21T17:21:50.354Z,10.02
2022-11-21T17:24:18.214Z,10.27
2022-11-21T17:26:45.248Z,7.93
2022-11-21T17:29:12.428Z,7.93
2022-11-21T17:31:41.988Z,10.18
2022-11-21T17:34:09.347Z,8.70
2022-11-21T17:36:36.477Z,7.85
2022-11-21T17:39:03.766Z,8.32
2022-11-21T17:41:30.973Z,9.90
2022-11-21T17:43:59.872Z,9.40
2022-11-21T17:46:28.484Z,7.75
2022-11-21T17:48:58.767Z,8.07
2022-11-21T17:51:34.687Z,10.57
2022-11-21T17:54:02.447Z,8.15
2022-11-21T17:56:33.350Z,7.45
2022-11-21T17:59:00.713Z,5.72
2022-11-21T18:01:28.716Z,7.18
2022-11-21T18:03:58.419Z,6.93
2022-11-21T18:06:28.712Z,11.25
2022-11-21T18:08:58.795Z,10.98
2022-11-21T18:11:34.432Z,12.27
2022-11-21T18:14:05.932Z,10.13
2022-11-21T18:16:33.669Z,11.85
2022-11-21T18:19:00.819Z,12.50
2022-11-21T18:21:30.471Z,10.18
2022-11-21T18:23:59.917Z,9.55
2022-11-21T18:26:32.315Z,13.07
2022-11-21T18:29:34.160Z,15.52
2022-11-21T18:31:49.544Z,14.73
2022-11-21T18:34:16.722Z,12.38
2022-11-21T18:36:47.045Z,14.48
2022-11-21T18:39:15.649Z,25.42
2022-11-21T18:41:43.682Z,10.50
2022-11-21T18:44:14.630Z,10.68
2022-11-21T18:46:44.841Z,9.30
2022-11-21T18:49:12.049Z,7.85
2022-11-21T18:51:39.781Z,11.75
2022-11-21T18:54:09.816Z,10.18
2022-11-21T18:56:39.067Z,12.65
2022-11-21T18:59:07.268Z,9.73
2022-11-21T19:01:36.246Z,7.35
2022-11-21T19:04:06.106Z,10.30
2022-11-21T19:06:33.276Z,14.98
2022-11-21T19:09:00.476Z,13.20
2022-11-21T19:11:29.529Z,9.52
2022-11-21T19:13:58.294Z,9.07
2022-11-21T19:16:27.356Z,8.45
2022-11-21T19:19:26.488Z,9.25
2022-11-21T19:21:43.149Z,6.05
2022-11-21T19:24:14.259Z,11.13
2022-11-21T19:26:42.978Z,10.63
2022-11-21T19:29:10.579Z,12.95
2022-11-21T19:31:43.046Z,6.55
2022-11-21T19:34:15.930Z,9.00
2022-11-21T19:36:44.218Z,7.38
2022-11-21T19:39:11.710Z,17.00
2022-11-21T19:41:38.958Z,10.55
2022-11-21T19:44:06.545Z,8.35
2022-11-21T19:46:37.770Z,9.57
2022-11-21T19:49:06.795Z,11.25
2022-11-21T19:51:37.949Z,11.98
2022-11-21T19:54:07.204Z,13.55
2022-11-21T19:56:34.828Z,10.38
2022-11-21T19:59:02.357Z,10.95
2022-11-21T20:01:31.351Z,9.05
2022-11-21T20:04:01.160Z,7.20
2022-11-21T20:06:29.476Z,11.48
2022-11-21T20:08:57.543Z,10.68
2022-11-21T20:11:27.093Z,11.30
2022-11-21T20:13:54.791Z,7.20
2022-11-21T20:16:24.059Z,8.43
2022-11-21T20:18:52.751Z,10.60
2022-11-21T20:21:20.689Z,15.98
2022-11-21T20:23:48.314Z,10.32
2022-11-21T20:26:17.085Z,13.27
2022-11-21T20:28:45.121Z,13.98
2022-11-21T20:31:17.830Z,11.15
2022-11-21T20:33:48.170Z,12.82
2022-11-21T20:36:19.612Z,7.93
2022-11-21T20:38:55.583Z,11.52
2022-11-21T20:41:25.291Z,11.10
2022-11-21T20:46:52.257Z,9.20
2022-11-21T20:49:19.753Z,4.63
2022-11-21T20:53:31.287Z,9.73
2022-11-21T20:54:35.403Z,10.00
2022-11-21T20:57:02.831Z,6.22
2022-11-21T20:59:30.755Z,8.63
2022-11-21T21:01:58.593Z,8.77
2022-11-21T21:04:26.031Z,9.45
2022-11-21T21:06:53.212Z,5.25
2022-11-21T21:09:20.549Z,6.47
2022-11-21T21:11:52.526Z,9.70
2022-11-21T21:14:22.117Z,11.57
2022-11-21T21:16:50.318Z,8.73
2022-11-21T21:19:18.396Z,6.13
2022-11-21T21:21:46.105Z,16.90
2022-11-21T21:24:14.612Z,10.63
2022-11-21T21:26:45.575Z,10.95
2022-11-21T21:29:16.478Z,7.05
2022-11-21T21:31:50.598Z,5.70
2022-11-21T21:34:20.259Z,12.25
2022-11-21T21:36:47.705Z,9.73
2022-11-21T21:39:15.016Z,9.77
2022-11-21T21:41:46.688Z,10.48
2022-11-21T21:44:15.411Z,10.13
2022-11-21T21:46:43.056Z,10.55
2022-11-21T21:49:10.672Z,6.20
2022-11-21T21:51:38.343Z,12.70
2022-11-21T21:54:06.649Z,10.90
2022-11-21T21:56:34.355Z,9.38
2022-11-21T21:59:01.565Z,10.20
2022-11-21T22:01:31.011Z,11.20
2022-11-21T22:04:03.371Z,9.00
2022-11-21T22:06:32.694Z,10.50
2022-11-21T22:09:00.096Z,9.18
2022-11-21T22:11:29.672Z,9.85
2022-11-21T22:14:05.658Z,9.73
2022-11-21T22:16:33.208Z,6.90
2022-11-21T22:19:00.351Z,11.80
2022-11-21T22:21:30.167Z,12.82
2022-11-21T22:26:46.197Z,15.05
2022-11-21T22:29:13.751Z,8.90
2022-11-21T22:31:41.023Z,7.10
2022-11-21T22:34:11.977Z,7.75
2022-11-21T22:36:39.182Z,9.07
2022-11-21T22:39:06.316Z,7.57
2022-11-21T22:41:33.440Z,10.15
2022-11-21T22:44:00.726Z,8.02
2022-11-21T22:46:29.588Z,5.82
2022-11-21T22:48:56.921Z,4.38
2022-11-21T22:51:27.527Z,10.93
2022-11-21T22:53:55.184Z,3.90
2022-11-21T22:56:24.640Z,4.10
2022-11-21T22:58:53.834Z,11.95
2022-11-21T23:01:23.558Z,9.77
2022-11-21T23:03:51.680Z,7.57
2022-11-21T23:06:21.642Z,7.95
2022-11-21T23:08:49.977Z,5.57
2022-11-21T23:11:26.347Z,8.50
2022-11-21T23:13:54.682Z,8.07
2022-11-21T23:16:22.592Z,10.00
2022-11-21T23:18:53.011Z,7.18
2022-11-21T23:21:21.049Z,6.63
2022-11-21T23:23:48.225Z,6.47
2022-11-21T23:26:15.899Z,10.07
2022-11-21T23:28:43.011Z,5.25
2022-11-21T23:31:11.084Z,5.90
2022-11-21T23:33:38.768Z,10.80
2022-11-21T23:36:06.075Z,7.28
2022-11-21T23:38:33.119Z,3.40
2022-11-21T23:41:00.261Z,3.78
2022-11-21T23:43:27.489Z,8.95
2022-11-21T23:45:55.058Z,12.02
2022-11-21T23:48:24.384Z,7.38
2022-11-21T23:50:51.730Z,8.30
2022-11-21T23:53:22.464Z,8.70
2022-11-21T23:55:50.269Z,11.13
2022-11-21T23:58:17.583Z,7.57
